Time;durP1;ratioP1;P1;durP2;ratioP2;P2;SDS_P1;SDS_P2;PMS_P1;PMS_P2;Temp;Humidity;BMP_temperature;BMP_pressure;BME280_temperature;BME280_humidity;BME280_pressure;Samples;Min_cycle;Max_cycle;Signal;HPM_P1;HPM_P2
2022/04/01 00:01:48;;;;;;;1.77;1.00;;;12.40;57.50;;;;;;5013224;28;20385;-69
2022/04/01 00:04:15;;;;;;;1.80;1.10;;;12.30;57.90;;;;;;5013515;28;20054;-69
2022/04/01 00:06:42;;;;;;;1.75;1.08;;;;;;;;;;5013474;28;20100;-68
2022/04/01 00:09:09;;;;;;;1.60;1.00;;;12.40;57.70;;;;;;5013372;28;20407;-69
2022/04/01 00:11:36;;;;;;;1.30;1.10;;;;;;;;;;5012836;28;20054;-67
2022/04/01 00:14:03;;;;;;;1.45;1.08;;;12.30;57.60;;;;;;5014137;28;20046;-69
2022/04/01 00:16:29;;;;;;;1.27;1.02;;;12.30;57.80;;;;;;5013278;28;20054;-69
2022/04/01 00:18:58;;;;;;;1.08;0.80;;;12.40;49.20;;;;;;5011987;28;20060;-68
2022/04/01 00:21:25;;;;;;;1.95;1.40;;;;;;;;;;5012996;28;20202;-68
2022/04/01 00:23:51;;;;;;;1.42;1.00;;;12.40;57.70;;;;;;5012093;28;20054;-69
2022/04/01 00:26:18;;;;;;;1.45;1.02;;;;;;;;;;5012876;28;20723;-68
2022/04/01 00:28:45;;;;;;;1.10;1.00;;;;;;;;;;5014069;28;20062;-69
2022/04/01 00:31:13;;;;;;;1.77;1.10;;;;;;;;;;5011362;28;20062;-69
2022/04/01 00:33:40;;;;;;;1.55;0.95;;;;;;;;;;5013026;28;20049;-69
2022/04/01 00:36:08;;;;;;;1.20;1.00;;;12.40;57.80;;;;;;5012927;28;20092;-69
2022/04/01 00:38:35;;;;;;;1.40;0.90;;;12.30;57.70;;;;;;5011648;28;20489;-69
2022/04/01 00:41:02;;;;;;;1.10;1.00;;;12.30;57.80;;;;;;5012452;28;20096;-69
2022/04/01 00:43:30;;;;;;;1.60;0.93;;;;;;;;;;5012630;28;20054;-68
2022/04/01 00:45:57;;;;;;;2.95;1.00;;;12.00;57.40;;;;;;5012552;28;20057;-69
2022/04/01 00:48:24;;;;;;;1.48;1.08;;;12.70;57.90;;;;;;5012601;28;20136;-69
2022/04/01 00:50:50;;;;;;;0.85;0.80;;;12.40;57.50;;;;;;5012300;28;20052;-69
2022/04/01 00:53:19;;;;;;;1.33;0.90;;;12.40;48.10;;;;;;5012442;28;20053;-67
2022/04/01 00:55:46;;;;;;;1.30;0.90;;;12.40;57.30;;;;;;5012194;28;20050;-69
2022/04/01 00:58:13;;;;;;;1.25;0.90;;;12.40;57.90;;;;;;5012646;28;20050;-69
2022/04/01 01:00:40;;;;;;;1.60;1.00;;;;;;;;;;5013322;28;20050;-68
2022/04/01 01:03:07;;;;;;;1.08;0.90;;;12.50;57.80;;;;;;5012444;28;20424;-69
2022/04/01 01:05:34;;;;;;;1.45;1.17;;;;;;;;;;5011081;28;20057;-68
2022/04/01 01:08:05;;;;;;;1.10;0.95;;;12.30;57.30;;;;;;5012509;28;20052;-69
2022/04/01 01:10:33;;;;;;;1.35;1.10;;;12.40;48.10;;;;;;5010997;28;20053;-67
2022/04/01 01:13:02;;;;;;;1.20;0.85;;;;;;;;;;5012264;28;20076;-69
2022/04/01 01:15:29;;;;;;;1.67;1.17;;;;;;;;;;5012109;28;20049;-67
2022/04/01 01:17:56;;;;;;;1.40;1.10;;;;;;;;;;5011789;28;20064;-69
2022/04/01 01:20:24;;;;;;;1.48;1.00;;;;;;;;;;5011909;28;20060;-67
2022/04/01 01:22:53;;;;;;;1.55;1.00;;;12.30;57.10;;;;;;5011932;28;20053;-66
2022/04/01 01:25:21;;;;;;;0.88;0.80;;;12.40;57.30;;;;;;5011080;28;20058;-66
2022/04/01 01:27:48;;;;;;;1.05;0.90;;;12.40;57.60;;;;;;5010909;28;20509;-66
2022/04/01 01:30:15;;;;;;;1.50;1.08;;;12.40;55.40;;;;;;5010484;28;20053;-67
2022/04/01 01:32:43;;;;;;;1.23;0.90;;;;;;;;;;5011958;28;20057;-67
2022/04/01 01:35:10;;;;;;;1.13;1.00;;;12.60;57.30;;;;;;5010934;28;20102;-66
2022/04/01 01:37:38;;;;;;;1.40;1.00;;;;;;;;;;5010766;28;20060;-68
2022/04/01 01:40:06;;;;;;;2.30;1.10;;;12.40;56.80;;;;;;5010319;28;20057;-66
2022/04/01 01:42:34;;;;;;;1.10;1.00;;;12.50;47.90;;;;;;5010890;28;20068;-69
2022/04/01 01:45:01;;;;;;;1.60;0.90;;;;;;;;;;5011909;28;20460;-67
2022/04/01 01:47:27;;;;;;;4.15;1.17;;;12.30;56.90;;;;;;5011682;28;20511;-66
2022/04/01 01:55:27;;;;;;;1.65;1.20;;;;;;;;;;5030547;28;20049;-66
2022/04/01 01:57:56;;;;;;;2.53;1.48;;;12.50;57.20;;;;;;5030565;28;20050;-66
2022/04/01 02:00:23;;;;;;;1.00;0.90;;;;;;;;;;5029487;28;20067;-69
2022/04/01 02:02:50;;;;;;;1.55;0.95;;;12.60;57.40;;;;;;5031475;28;20049;-66
2022/04/01 02:05:17;;;;;;;1.75;1.00;;;12.40;57.10;;;;;;5030461;28;20054;-66
2022/04/01 02:07:47;;;;;;;1.33;1.05;;;12.40;55.50;;;;;;5030293;28;20053;-66
2022/04/01 02:10:14;;;;;;;1.33;1.00;;;12.60;57.00;;;;;;5031350;28;20132;-66
2022/04/01 02:12:42;;;;;;;1.42;0.98;;;;;;;;;;5026467;28;20054;-67
2022/04/01 02:15:13;;;;;;;1.65;0.88;;;12.50;56.80;;;;;;5010305;28;20485;-67
2022/04/01 02:17:40;;;;;;;2.40;1.00;;;;;;;;;;5011732;28;20135;-67
2022/04/01 02:20:09;;;;;;;1.02;0.90;;;12.50;47.80;;;;;;5026882;28;20045;-69
2022/04/01 02:22:35;;;;;;;2.05;1.10;;;12.50;49.10;;;;;;5030095;28;20057;-68
2022/04/01 02:25:04;;;;;;;1.13;0.95;;;12.40;56.80;;;;;;5021825;28;20046;-66
2022/04/01 02:27:31;;;;;;;1.23;0.77;;;12.50;57.00;;;;;;5010424;28;20507;-66
2022/04/01 02:29:58;;;;;;;1.23;0.90;;;12.50;57.10;;;;;;5010161;28;20061;-66
2022/04/01 02:32:26;;;;;;;0.88;0.80;;;12.60;57.10;;;;;;5013972;28;20065;-66
2022/04/01 02:34:53;;;;;;;1.60;0.90;;;12.50;57.30;;;;;;5015058;28;20050;-66
2022/04/01 02:37:25;;;;;;;1.10;1.00;;;;;;;;;;5014026;28;20060;-69
2022/04/01 02:39:52;;;;;;;1.13;1.02;;;;;;;;;;5015173;28;20460;-69
2022/04/01 02:42:19;;;;;;;1.95;1.00;;;12.50;56.90;;;;;;5013870;28;20507;-66
2022/04/01 02:44:45;;;;;;;1.40;0.90;;;12.40;57.10;;;;;;5014835;28;20056;-66
2022/04/01 02:47:12;;;;;;;2.25;1.05;;;;;;;;;;5013888;28;20056;-68
2022/04/01 02:49:40;;;;;;;1.45;1.00;;;12.00;56.70;;;;;;5013579;28;20085;-66
2022/04/01 02:52:07;;;;;;;1.88;0.93;;;12.50;57.30;;;;;;5014668;28;20460;-66
2022/04/01 02:54:35;;;;;;;1.30;1.00;;;;;;;;;;5014346;28;20465;-69
2022/04/01 02:57:02;;;;;;;1.70;1.08;;;12.40;53.70;;;;;;5014636;28;20089;-66
2022/04/01 02:59:29;;;;;;;0.88;0.88;;;;;;;;;;5013512;28;20513;-67
2022/04/01 03:01:56;;;;;;;1.35;0.90;;;12.30;57.10;;;;;;5013065;28;20467;-66
2022/04/01 03:04:23;;;;;;;1.88;1.10;;;;;;;;;;5013159;28;20049;-68
2022/04/01 03:06:51;;;;;;;1.25;1.10;;;12.60;56.90;;;;;;5014565;28;20145;-67
2022/04/01 03:09:19;;;;;;;1.63;1.00;;;12.10;56.70;;;;;;5013430;28;20056;-66
2022/04/01 03:11:45;;;;;;;1.13;0.80;;;12.30;56.90;;;;;;5014202;28;20050;-66
2022/04/01 03:14:12;;;;;;;0.93;0.88;;;12.50;57.10;;;;;;5032514;28;20053;-66
2022/04/01 03:16:39;;;;;;;0.95;0.80;;;12.40;57.00;;;;;;5032904;28;20086;-67
2022/04/01 03:19:08;;;;;;;1.10;0.90;;;12.50;57.40;;;;;;5033888;28;20427;-67
2022/04/01 03:21:35;;;;;;;1.13;0.90;;;12.40;54.70;;;;;;5033687;28;20095;-67
2022/04/01 03:24:04;;;;;;;1.38;1.02;;;12.70;57.30;;;;;;5032616;28;20049;-66
2022/04/01 03:26:31;;;;;;;0.80;0.80;;;;;;;;;;5029741;28;20049;-66
2022/04/01 03:28:59;;;;;;;1.20;0.90;;;;;;;;;;5014057;28;20050;-66
2022/04/01 03:31:26;;;;;;;1.02;0.90;;;12.00;56.70;;;;;;5012639;28;20108;-66
2022/04/01 03:33:53;;;;;;;1.67;0.90;;;12.40;57.00;;;;;;5012465;28;20050;-66
2022/04/01 03:36:20;;;;;;;1.23;1.00;;;;;;;;;;5012928;28;20060;-68
2022/04/01 03:38:47;;;;;;;1.00;0.90;;;12.50;57.20;;;;;;5012687;28;20057;-66
2022/04/01 03:41:15;;;;;;;0.80;0.80;;;12.20;56.60;;;;;;5013178;28;20050;-67
2022/04/01 03:43:43;;;;;;;1.92;0.90;;;12.40;57.10;;;;;;5026998;28;20045;-66
2022/04/01 03:46:11;;;;;;;1.80;1.00;;;12.40;49.70;;;;;;5032481;28;20065;-67
2022/04/01 03:48:42;;;;;;;1.40;0.90;;;12.30;56.80;;;;;;5032467;28;20068;-66
2022/04/01 03:51:09;;;;;;;0.85;0.85;;;12.40;57.20;;;;;;5031895;28;20407;-66
2022/04/01 03:53:36;;;;;;;1.80;0.90;;;12.30;54.80;;;;;;5032053;28;20057;-66
2022/04/01 03:56:06;;;;;;;2.55;1.00;;;12.40;56.80;;;;;;5033553;28;20045;-66
2022/04/01 03:58:35;;;;;;;1.05;0.80;;;12.60;56.90;;;;;;5018077;28;20068;-66
2022/04/01 04:01:02;;;;;;;0.73;0.73;;;;;;;;;;5011951;28;20651;-66
2022/04/01 04:03:30;;;;;;;0.90;0.75;;;12.50;56.80;;;;;;5013659;28;20050;-66
2022/04/01 04:05:57;;;;;;;1.10;1.00;;;12.60;52.20;;;;;;5012338;28;20065;-66
2022/04/01 04:08:24;;;;;;;2.05;0.90;;;;;;;;;;5013324;28;20046;-69
2022/04/01 04:10:52;;;;;;;1.02;0.90;;;12.40;56.70;;;;;;5013273;28;20049;-66
2022/04/01 04:13:20;;;;;;;1.23;0.93;;;12.50;57.10;;;;;;5012983;28;20077;-66
2022/04/01 04:15:55;;;;;;;1.58;1.00;;;12.80;56.90;;;;;;5013150;28;20064;-66
2022/04/01 04:18:22;;;;;;;1.20;0.90;;;12.50;57.10;;;;;;5012225;28;20064;-66
2022/04/01 04:21:05;;;;;;;1.67;1.10;;;12.40;56.30;;;;;;5011473;28;20060;-67
2022/04/01 04:23:36;;;;;;;0.90;0.90;;;12.30;56.90;;;;;;5013075;28;20050;-66
2022/04/01 04:26:11;;;;;;;1.23;0.80;;;12.60;56.90;;;;;;5012454;28;20093;-66
2022/04/01 04:28:39;;;;;;;1.85;0.88;;;12.50;57.20;;;;;;5011896;28;20066;-66
2022/04/01 04:31:09;;;;;;;1.30;0.90;;;12.50;57.20;;;;;;5011507;28;20065;-66
2022/04/01 04:33:38;;;;;;;1.00;0.90;;;12.30;57.00;;;;;;5011975;28;20056;-66
2022/04/01 04:36:07;;;;;;;1.88;1.00;;;12.40;52.00;;;;;;5012675;28;20056;-67
2022/04/01 04:38:37;;;;;;;1.38;0.90;;;12.50;47.50;;;;;;5012818;28;20054;-66
2022/04/01 04:41:08;;;;;;;0.85;0.85;;;12.80;57.30;;;;;;5011162;28;20061;-69
2022/04/01 04:43:38;;;;;;;0.95;0.80;;;12.70;57.00;;;;;;5012147;28;20060;-69
2022/04/01 04:46:05;;;;;;;1.92;1.00;;;;;;;;;;5011610;28;20493;-68
2022/04/01 04:48:34;;;;;;;0.93;0.90;;;12.50;57.10;;;;;;5011395;28;20053;-69
2022/04/01 04:51:02;;;;;;;1.05;0.80;;;12.70;57.10;;;;;;5011156;28;20076;-69
2022/04/01 04:53:30;;;;;;;0.73;0.70;;;12.60;57.20;;;;;;5010593;28;20057;-69
2022/04/01 04:55:58;;;;;;;1.60;1.05;;;12.50;47.50;;;;;;5011212;28;20485;-68
2022/04/01 04:58:25;;;;;;;1.45;1.00;;;;;;;;;;5014121;28;20496;-67
2022/04/01 05:00:55;;;;;;;1.48;0.90;;;12.60;57.10;;;;;;5031876;28;20484;-69
2022/04/01 05:03:38;;;;;;;1.05;0.80;;;12.50;47.50;;;;;;5030860;28;20057;-67
2022/04/01 05:06:06;;;;;;;0.98;0.88;;;;;;;;;;5030885;28;20056;-69
2022/04/01 05:08:50;;;;;;;0.88;0.85;;;12.40;56.90;;;;;;5031988;28;20519;-69
2022/04/01 05:11:19;;;;;;;0.98;0.80;;;12.40;56.80;;;;;;5031815;28;20132;-69
2022/04/01 05:13:49;;;;;;;1.27;0.82;;;12.50;47.50;;;;;;5031969;28;20463;-67
2022/04/01 05:16:24;;;;;;;1.42;0.93;;;12.50;47.50;;;;;;5028751;28;20057;-68
2022/04/01 05:18:56;;;;;;;1.20;0.80;;;12.30;56.80;;;;;;5030646;28;20064;-69
2022/04/01 05:21:23;;;;;;;1.30;0.95;;;12.60;56.90;;;;;;5030655;28;20053;-69
2022/04/01 05:23:54;;;;;;;1.17;0.90;;;12.50;53.70;;;;;;5030880;28;20107;-69
2022/04/01 05:26:25;;;;;;;1.80;0.90;;;12.40;56.90;;;;;;5030460;28;20057;-69
2022/04/01 05:28:53;;;;;;;1.13;1.00;;;13.00;57.40;;;;;;5030658;28;20376;-69
2022/04/01 05:31:20;;;;;;;2.13;1.00;;;12.40;56.80;;;;;;5028598;28;20084;-69
2022/04/01 05:33:58;;;;;;;1.35;0.95;;;12.50;51.10;;;;;;5030770;28;20057;-69
2022/04/01 05:36:25;;;;;;;1.55;0.98;;;;;;;;;;5030367;28;20140;-68
2022/04/01 05:38:52;;;;;;;1.20;0.80;;;12.50;57.10;;;;;;5031414;28;20148;-66
2022/04/01 05:41:19;;;;;;;0.90;0.80;;;12.20;49.30;;;;;;5031625;28;20389;-67
2022/04/01 05:43:47;;;;;;;2.08;0.85;;;12.60;57.10;;;;;;5031487;28;20054;-66
2022/04/01 05:46:14;;;;;;;1.08;0.90;;;;;;;;;;5014976;28;20100;-67
2022/04/01 05:48:41;;;;;;;1.17;0.90;;;;;;;;;;5011842;28;20046;-67
2022/04/01 05:51:10;;;;;;;1.40;0.90;;;12.50;56.70;;;;;;5010631;28;20429;-66
2022/04/01 05:53:37;;;;;;;1.88;0.80;;;12.40;52.80;;;;;;5010715;28;20060;-67
2022/04/01 05:56:04;;;;;;;2.33;1.13;;;12.50;56.90;;;;;;5011786;28;20416;-66
2022/04/01 05:58:31;;;;;;;1.05;0.90;;;12.90;51.30;;;;;;5011528;28;20132;-66
2022/04/01 06:01:02;;;;;;;1.77;0.90;;;12.60;56.90;;;;;;5017041;28;20045;-66
2022/04/01 06:03:44;;;;;;;0.90;0.80;;;12.50;47.30;;;;;;5030140;28;20053;-66
2022/04/01 06:06:14;;;;;;;1.40;0.90;;;12.70;49.60;;;;;;5033743;28;20582;-67
2022/04/01 06:08:48;;;;;;;0.93;0.80;;;12.60;47.30;;;;;;5034246;28;20060;-69
2022/04/01 06:11:19;;;;;;;0.80;0.80;;;12.60;50.20;;;;;;5034167;28;20058;-66
2022/04/01 06:13:51;;;;;;;0.80;0.80;;;12.50;48.30;;;;;;5034333;28;20053;-68
2022/04/01 06:16:21;;;;;;;0.80;0.80;;;12.70;56.60;;;;;;5032249;28;20056;-66
2022/04/01 06:18:55;;;;;;;1.05;0.70;;;12.50;49.20;;;;;;5015133;28;20531;-67
2022/04/01 06:21:25;;;;;;;0.82;0.80;;;12.70;50.60;;;;;;5014076;28;20064;-67
2022/04/01 06:24:09;;;;;;;2.55;0.98;;;12.50;47.30;;;;;;5014264;28;20501;-69
2022/04/01 06:26:41;;;;;;;0.82;0.70;;;12.60;47.30;;;;;;5014334;28;20061;-66
2022/04/01 06:29:22;;;;;;;1.27;0.82;;;13.00;49.30;;;;;;5014182;28;20066;-67
2022/04/01 06:31:52;;;;;;;1.38;0.90;;;12.70;56.90;;;;;;5015388;28;20058;-66
2022/04/01 06:34:21;;;;;;;1.65;0.90;;;12.70;48.40;;;;;;5014060;28;20136;-67
2022/04/01 06:36:51;;;;;;;1.40;0.90;;;12.60;47.50;;;;;;5015167;28;20060;-68
2022/04/01 06:39:21;;;;;;;0.70;0.70;;;12.60;47.30;;;;;;5019089;28;20144;-66
2022/04/01 06:41:48;;;;;;;1.02;0.80;;;12.70;51.00;;;;;;5034558;28;20046;-68
2022/04/01 06:44:15;;;;;;;3.90;1.05;;;12.50;56.80;;;;;;5034755;28;20053;-68
2022/04/01 06:46:42;;;;;;;0.73;0.73;;;12.60;56.80;;;;;;5033692;28;20574;-68
2022/04/01 06:49:09;;;;;;;1.30;0.80;;;12.70;52.10;;;;;;5017005;28;20163;-67
2022/04/01 06:51:37;;;;;;;0.82;0.70;;;12.70;56.90;;;;;;5014747;28;20136;-69
2022/04/01 06:54:05;;;;;;;2.10;0.88;;;12.60;56.50;;;;;;5013524;28;20053;-68
2022/04/01 06:56:31;;;;;;;1.10;1.00;;;12.70;56.80;;;;;;5013439;28;20049;-68
2022/04/01 06:58:58;;;;;;;0.93;0.77;;;;;;;;;;5013652;28;20068;-68
2022/04/01 07:01:25;;;;;;;1.65;0.80;;;12.60;56.80;;;;;;5019404;28;20427;-68
2022/04/01 07:03:53;;;;;;;0.85;0.80;;;;;;;;;;5033075;28;20111;-69
2022/04/01 07:06:20;;;;;;;1.52;0.88;;;12.70;56.60;;;;;;5034225;28;20057;-68
2022/04/01 07:08:47;;;;;;;1.45;0.98;;;;;;;;;;5034085;28;20045;-67
2022/04/01 07:11:16;;;;;;;1.08;0.80;;;12.60;56.80;;;;;;5033929;28;20053;-68
2022/04/01 07:13:44;;;;;;;1.83;0.82;;;;;;;;;;5033169;28;20069;-67
2022/04/01 07:16:12;;;;;;;1.83;0.90;;;12.70;56.50;;;;;;5021274;28;20042;-68
2022/04/01 07:18:39;;;;;;;0.80;0.70;;;12.80;56.60;;;;;;5024308;28;20128;-70
2022/04/01 07:21:06;;;;;;;0.80;0.80;;;12.70;56.70;;;;;;5032792;28;20450;-70
2022/04/01 07:23:32;;;;;;;4.28;1.00;;;12.40;56.50;;;;;;5032719;28;20049;-70
2022/04/01 07:25:59;;;;;;;1.88;0.80;;;12.70;51.10;;;;;;5029266;28;20054;-69
2022/04/01 07:28:27;;;;;;;0.82;0.70;;;12.90;56.40;;;;;;5021282;28;20424;-70
2022/04/01 07:30:55;;;;;;;1.38;0.90;;;;;;;;;;5022176;28;20045;-71
2022/04/01 07:33:21;;;;;;;1.85;0.90;;;12.80;53.10;;;;;;5021871;28;20049;-71
2022/04/01 07:35:49;;;;;;;2.28;1.00;;;12.80;56.60;;;;;;5020885;28;20573;-71
2022/04/01 07:38:16;;;;;;;5.15;1.00;;;12.80;51.40;;;;;;5023427;28;20419;-71
2022/04/01 07:40:43;;;;;;;1.05;0.80;;;;;;;;;;5022721;28;20050;-71
2022/04/01 07:43:10;;;;;;;1.10;0.90;;;;;;;;;;5022655;28;20053;-70
2022/04/01 07:45:38;;;;;;;1.20;1.00;;;12.90;56.60;;;;;;5022036;28;20045;-69
2022/04/01 07:48:07;;;;;;;1.40;0.85;;;12.80;56.40;;;;;;5023440;28;20060;-69
2022/04/01 07:50:34;;;;;;;1.33;0.98;;;;;;;;;;5023686;28;20065;-69
2022/04/01 07:53:03;;;;;;;1.00;0.90;;;;;;;;;;5020850;28;20046;-69
2022/04/01 07:55:30;;;;;;;2.25;1.10;;;12.90;56.20;;;;;;5022456;28;20521;-69
2022/04/01 07:57:57;;;;;;;1.15;0.90;;;13.00;51.40;;;;;;5026025;28;20488;-68
2022/04/01 08:00:23;;;;;;;2.10;0.90;;;13.20;56.40;;;;;;5032999;28;20439;-69
2022/04/01 08:02:54;;;;;;;1.45;0.93;;;12.90;47.80;;;;;;5031891;28;20053;-69
2022/04/01 08:05:20;;;;;;;1.02;0.93;;;13.10;55.30;;;;;;5031684;28;20431;-70
2022/04/01 08:07:47;;;;;;;1.60;1.10;;;13.00;56.40;;;;;;5033016;28;20049;-70
2022/04/01 08:10:14;;;;;;;2.10;1.30;;;;;;;;;;5032844;28;20050;-69
2022/04/01 08:12:42;;;;;;;1.70;1.10;;;13.20;56.40;;;;;;5033157;28;20077;-70
2022/04/01 08:15:10;;;;;;;1.63;1.00;;;13.00;56.00;;;;;;5032944;28;20085;-70
2022/04/01 08:17:37;;;;;;;1.70;1.10;;;13.20;56.10;;;;;;5033263;28;20053;-70
2022/04/01 08:20:07;;;;;;;3.13;1.00;;;13.10;56.30;;;;;;5026262;28;20420;-70
2022/04/01 08:22:34;;;;;;;2.08;1.15;;;13.30;56.40;;;;;;5011749;28;20042;-70
2022/04/01 08:25:01;;;;;;;1.67;1.17;;;;;;;;;;5019478;28;20054;-70
2022/04/01 08:27:28;;;;;;;2.10;1.00;;;13.00;56.00;;;;;;5022468;28;20411;-70
2022/04/01 08:29:59;;;;;;;1.35;1.00;;;13.20;56.30;;;;;;5020941;28;20048;-70
2022/04/01 08:32:25;;;;;;;1.92;1.27;;;13.10;56.20;;;;;;5023848;28;20069;-68
2022/04/01 08:34:52;;;;;;;2.70;1.30;;;12.80;55.80;;;;;;5031717;28;20063;-68
2022/04/01 08:37:20;;;;;;;2.00;1.35;;;13.30;46.80;;;;;;5029911;28;20049;-71
2022/04/01 08:39:47;;;;;;;1.92;1.50;;;;;;;;;;5011663;28;20054;-68
2022/04/01 08:42:14;;;;;;;2.67;1.23;;;13.20;55.80;;;;;;5011602;28;20056;-68
2022/04/01 08:44:41;;;;;;;1.63;1.30;;;;;;;;;;5019279;28;20056;-71
2022/04/01 08:47:08;;;;;;;2.58;1.30;;;13.60;56.30;;;;;;5014140;28;20057;-68
2022/04/01 08:49:36;;;;;;;2.83;1.40;;;;;;;;;;5011512;28;20054;-70
2022/04/01 08:52:03;;;;;;;1.85;1.30;;;13.50;56.10;;;;;;5011570;28;20100;-67
2022/04/01 08:54:33;;;;;;;1.92;1.38;;;13.50;55.80;;;;;;5018283;28;20059;-67
2022/04/01 08:57:00;;;;;;;3.05;1.40;;;13.50;55.40;;;;;;5018345;28;20465;-68
2022/04/01 08:59:28;;;;;;;2.33;1.48;;;12.90;55.40;;;;;;5011370;28;20057;-68
2022/04/01 09:02:02;;;;;;;1.75;1.35;;;13.40;55.60;;;;;;5020211;28;20530;-68
2022/04/01 09:04:28;;;;;;;3.53;1.50;;;13.50;56.00;;;;;;5018930;28;20054;-68
2022/04/01 09:06:55;;;;;;;1.60;1.48;;;13.40;55.90;;;;;;5018572;28;20046;-68
2022/04/01 09:09:26;;;;;;;1.98;1.60;;;13.40;46.60;;;;;;5019020;28;20055;-71
2022/04/01 09:12:13;;;;;;;2.00;1.40;;;13.80;56.10;;;;;;5020202;28;20054;-71
2022/04/01 09:14:40;;;;;;;2.25;1.40;;;;;;;;;;5022302;28;20058;-70
2022/04/01 09:17:08;;;;;;;3.92;1.65;;;13.30;55.70;;;;;;5019399;28;20378;-70
2022/04/01 09:19:35;;;;;;;3.28;1.70;;;13.50;46.50;;;;;;5020459;28;20075;-69
2022/04/01 09:22:21;;;;;;;2.05;1.40;;;13.50;46.50;;;;;;5020032;28;20141;-70
2022/04/01 09:24:56;;;;;;;2.90;1.60;;;13.40;46.50;;;;;;5018588;28;20141;-73
2022/04/01 09:30:17;;;;;;;2.40;1.65;;;13.50;46.50;;;;;;5081632;27;20372;-70
2022/04/01 09:32:45;;;;;;;2.90;1.80;;;13.70;55.10;;;;;;5068699;28;20083;-70
2022/04/01 09:35:12;;;;;;;2.85;1.98;;;13.70;49.10;;;;;;5068383;28;20549;-70
2022/04/01 09:37:40;;;;;;;3.25;1.70;;;13.30;50.30;;;;;;5066070;28;20497;-69
2022/04/01 09:40:07;;;;;;;3.45;1.90;;;13.60;46.40;;;;;;5064669;28;20048;-68
2022/04/01 09:42:34;;;;;;;2.15;1.63;;;13.20;54.70;;;;;;5069766;28;20047;-70
2022/04/01 09:45:02;;;;;;;3.58;1.70;;;;;;;;;;5071808;28;20059;-68
2022/04/01 09:47:36;;;;;;;2.58;1.85;;;13.60;46.30;;;;;;5067051;28;20079;-70
2022/04/01 09:50:09;;;;;;;2.03;1.60;;;13.60;49.10;;;;;;5076676;28;20044;-70
2022/04/01 09:52:37;;;;;;;2.60;1.90;;;13.70;52.20;;;;;;5076776;28;20041;-70
2022/04/01 09:55:04;;;;;;;3.45;2.00;;;13.80;54.90;;;;;;5067000;28;20049;-68
2022/04/01 09:57:33;;;;;;;2.90;1.92;;;;;;;;;;5081389;28;20052;-68
2022/04/01 10:00:00;;;;;;;4.13;1.75;;;13.70;55.30;;;;;;5083898;28;20117;-68
2022/04/01 10:02:29;;;;;;;3.83;1.90;;;13.80;55.30;;;;;;5075469;28;20048;-68
2022/04/01 10:04:58;;;;;;;3.45;2.00;;;13.80;55.00;;;;;;5077039;28;20437;-68
2022/04/01 10:07:26;;;;;;;2.90;1.80;;;13.80;46.50;;;;;;5083123;28;20098;-68
2022/04/01 10:09:53;;;;;;;3.53;1.77;;;13.80;54.90;;;;;;5071534;28;20102;-67
2022/04/01 10:12:20;;;;;;;3.72;1.98;;;13.90;50.80;;;;;;5082239;28;20171;-67
2022/04/01 10:14:46;;;;;;;2.50;1.80;;;13.80;54.80;;;;;;5070426;28;20037;-68
2022/04/01 10:17:14;;;;;;;2.88;1.70;;;13.90;46.50;;;;;;5077569;28;20656;-66
2022/04/01 10:19:43;;;;;;;3.20;2.13;;;13.90;55.10;;;;;;5081505;28;20051;-68
2022/04/01 10:22:15;;;;;;;2.83;1.77;;;13.90;46.50;;;;;;5067496;28;20053;-67
2022/04/01 10:24:45;;;;;;;3.10;1.90;;;14.00;55.20;;;;;;5054255;28;20647;-67
2022/04/01 10:27:16;;;;;;;4.85;1.85;;;13.40;49.80;;;;;;5048118;28;20487;-68
2022/04/01 10:29:43;;;;;;;2.95;1.60;;;14.00;55.00;;;;;;5046628;28;20145;-67
2022/04/01 10:32:24;;;;;;;4.07;1.90;;;13.90;47.60;;;;;;5046944;28;20479;-68
2022/04/01 10:34:51;;;;;;;3.63;1.60;;;14.00;55.10;;;;;;5046761;28;20486;-68
2022/04/01 10:37:21;;;;;;;2.53;1.63;;;13.90;46.40;;;;;;5046120;28;20053;-69
2022/04/01 10:39:49;;;;;;;2.97;1.67;;;13.50;54.50;;;;;;5048763;28;20045;-67
2022/04/01 10:42:16;;;;;;;2.45;1.70;;;14.00;55.10;;;;;;5053405;28;20057;-67
2022/04/01 10:44:47;;;;;;;3.30;1.60;;;14.30;54.90;;;;;;5053511;28;20395;-67
2022/04/01 10:47:14;;;;;;;3.70;1.60;;;14.10;54.80;;;;;;5051616;28;20051;-68
2022/04/01 10:52:27;;;;;;;2.35;1.70;;;14.00;54.80;;;;;;5041714;28;20049;-68
2022/04/01 10:55:11;;;;;;;3.88;1.70;;;14.00;55.00;;;;;;5043115;28;20508;-68
2022/04/01 10:57:42;;;;;;;3.45;1.50;;;14.00;54.80;;;;;;5043824;28;20045;-66
2022/04/01 11:00:14;;;;;;;3.58;1.50;;;14.00;46.40;;;;;;5046231;28;20054;-69
2022/04/01 11:02:41;;;;;;;2.20;1.55;;;14.00;54.80;;;;;;5042085;28;20045;-66
2022/04/01 11:05:27;;;;;;;1.95;1.45;;;14.20;55.10;;;;;;5031808;28;20057;-67
2022/04/01 11:08:17;;;;;;;3.10;1.58;;;14.10;54.80;;;;;;5045119;28;20060;-66
2022/04/01 11:11:08;;;;;;;2.38;1.40;;;14.00;54.70;;;;;;5039827;28;20042;-65
2022/04/01 11:13:35;;;;;;;1.80;1.38;;;;;;;;;;5048703;28;20484;-70
2022/04/01 11:16:15;;;;;;;1.88;1.38;;;14.10;47.10;;;;;;5051670;28;20045;-69
2022/04/01 11:19:11;;;;;;;1.98;1.40;;;13.80;54.90;;;;;;5046657;28;20492;-65
2022/04/01 11:21:38;;;;;;;2.05;1.45;;;14.20;50.90;;;;;;5049398;28;20464;-66
2022/04/01 11:24:21;;;;;;;2.38;1.30;;;14.20;55.10;;;;;;5033929;28;20053;-66
2022/04/01 11:26:48;;;;;;;2.00;1.40;;;14.20;55.00;;;;;;5040617;28;20413;-66
2022/04/01 11:29:18;;;;;;;2.15;1.35;;;14.10;55.20;;;;;;5053495;28;20055;-69
2022/04/01 11:31:45;;;;;;;3.47;1.40;;;13.70;54.70;;;;;;5045348;28;20044;-67
2022/04/01 11:34:12;;;;;;;1.77;1.30;;;14.00;51.40;;;;;;5037763;28;20056;-67
2022/04/01 11:36:38;;;;;;;2.75;1.20;;;14.00;54.80;;;;;;5053440;28;20052;-67
2022/04/01 11:39:10;;;;;;;1.80;1.40;;;14.00;46.70;;;;;;5053240;28;20044;-68
2022/04/01 11:41:47;;;;;;;2.28;1.40;;;14.10;54.90;;;;;;5052262;28;20061;-67
2022/04/01 11:44:15;;;;;;;2.03;1.40;;;14.00;47.40;;;;;;5052499;28;20053;-67
2022/04/01 11:46:42;;;;;;;1.60;1.30;;;;;;;;;;5053536;28;20052;-68
2022/04/01 11:49:09;;;;;;;2.55;1.30;;;13.50;54.70;;;;;;5053207;28;20418;-67
2022/04/01 11:51:39;;;;;;;3.40;1.30;;;14.20;48.50;;;;;;5050616;28;20513;-66
2022/04/01 11:54:10;;;;;;;2.60;1.40;;;13.90;46.70;;;;;;5053032;28;20501;-68
2022/04/01 11:56:37;;;;;;;2.10;1.30;;;;;;;;;;5053202;28;20044;-68
2022/04/01 11:59:04;;;;;;;1.60;1.27;;;13.80;51.50;;;;;;5046122;28;20047;-69
2022/04/01 12:01:32;;;;;;;2.30;1.23;;;13.60;53.60;;;;;;5046850;28;20049;-69
2022/04/01 12:04:06;;;;;;;2.72;1.50;;;13.80;50.50;;;;;;5047796;28;20059;-69
2022/04/01 12:09:19;;;;;;;2.97;1.20;;;13.90;55.30;;;;;;5030830;28;20136;-69
2022/04/01 12:11:46;;;;;;;2.13;1.33;;;13.80;54.70;;;;;;5031930;28;20056;-69
2022/04/01 12:14:14;;;;;;;1.70;1.30;;;;;;;;;;5032374;28;20053;-69
2022/04/01 12:16:41;;;;;;;1.60;1.30;;;;;;;;;;5050464;28;20057;-70
2022/04/01 12:19:14;;;;;;;1.60;1.20;;;14.10;55.20;;;;;;5051995;28;20053;-69
2022/04/01 12:21:41;;;;;;;2.88;1.20;;;13.80;50.40;;;;;;5052298;28;20395;-68
2022/04/01 12:24:08;;;;;;;1.55;1.15;;;13.60;55.10;;;;;;5036187;28;20042;-68
2022/04/01 12:26:36;;;;;;;1.77;1.30;;;14.10;55.40;;;;;;5031702;28;20408;-68
2022/04/01 12:29:03;;;;;;;2.10;1.33;;;13.70;55.30;;;;;;5034026;28;20053;-68
2022/04/01 12:31:31;;;;;;;2.35;1.30;;;13.60;55.20;;;;;;5041336;28;20051;-69
2022/04/01 12:33:59;;;;;;;2.38;1.40;;;13.70;46.90;;;;;;5040192;28;20048;-68
2022/04/01 12:36:30;;;;;;;1.77;1.23;;;13.60;49.90;;;;;;5040740;28;20429;-68
2022/04/01 12:39:01;;;;;;;2.75;1.20;;;13.60;46.90;;;;;;5040905;28;20505;-67
2022/04/01 12:41:28;;;;;;;1.52;1.20;;;;;;;;;;5040986;28;20056;-69
2022/04/01 12:43:57;;;;;;;2.45;1.33;;;13.60;55.30;;;;;;5041569;28;20045;-67
2022/04/01 12:46:25;;;;;;;1.98;1.40;;;;;;;;;;5043125;28;20045;-69
2022/04/01 12:48:52;;;;;;;1.80;1.30;;;;;;;;;;5032064;28;20128;-70
2022/04/01 12:51:20;;;;;;;1.67;1.25;;;13.60;55.00;;;;;;5035164;28;20478;-67
2022/04/01 12:53:58;;;;;;;1.63;1.20;;;13.50;55.30;;;;;;5041849;28;20486;-67
2022/04/01 12:56:26;;;;;;;1.42;1.20;;;13.40;46.70;;;;;;5041696;28;20472;-67
2022/04/01 12:58:54;;;;;;;2.15;1.20;;;;;;;;;;5042918;28;20053;-67
2022/04/01 13:01:23;;;;;;;2.10;1.20;;;13.30;54.10;;;;;;5039714;28;20060;-67
2022/04/01 13:03:50;;;;;;;1.60;1.13;;;;;;;;;;5032624;28;20149;-66
2022/04/01 13:06:19;;;;;;;2.50;1.27;;;13.90;55.50;;;;;;5031082;28;20504;-66
2022/04/01 13:08:46;;;;;;;3.50;1.50;;;;;;;;;;5032283;28;20052;-68
2022/04/01 13:11:13;;;;;;;1.35;1.20;;;13.60;54.90;;;;;;5035926;28;20049;-66
2022/04/01 13:13:41;;;;;;;1.27;1.05;;;;;;;;;;5033461;28;20057;-70
2022/04/01 13:16:07;;;;;;;2.63;1.35;;;13.30;54.90;;;;;;5032122;28;20045;-71
2022/04/01 13:18:35;;;;;;;1.60;1.10;;;13.30;46.60;;;;;;5032154;28;20060;-66
2022/04/01 13:21:02;;;;;;;1.70;1.30;;;13.40;55.40;;;;;;5031681;28;20055;-66
2022/04/01 13:23:31;;;;;;;1.42;1.10;;;13.40;51.30;;;;;;5031592;28;20045;-67
2022/04/01 13:25:58;;;;;;;1.50;1.15;;;13.40;55.30;;;;;;5032006;28;20123;-67
2022/04/01 13:28:25;;;;;;;1.45;1.20;;;;;;;;;;5049398;28;20433;-66
2022/04/01 13:30:51;;;;;;;2.00;1.30;;;13.50;55.40;;;;;;5051354;28;20500;-67